sensor_id;sensor_type;location;lat;lon;timestamp;pressure;altitude;pressure_sealevel;temperature;humidity
58092;BME280;43896;48.178;11.578;2022-12-07T00:00:55;95785.16;;;4.73;70.29
58092;BME280;43896;48.178;11.578;2022-12-07T00:03:28;95812.06;;;4.95;69.62
58092;BME280;43896;48.178;11.578;2022-12-07T00:05:57;95750.63;;;4.60;69.92
58092;BME280;43896;48.178;11.578;2022-12-07T00:08:22;95799.09;;;4.83;69.96
58092;BME280;43896;48.178;11.578;2022-12-07T00:10:48;95752.53;;;4.58;70.11
58092;BME280;43896;48.178;11.578;2022-12-07T00:13:13;95710.53;;;4.40;69.79
58092;BME280;43896;48.178;11.578;2022-12-07T00:15:38;95737.56;;;4.71;69.37
58092;BME280;43896;48.178;11.578;2022-12-07T00:18:04;95804.66;;;5.11;69.25
58092;BME280;43896;48.178;11.578;2022-12-07T00:20:29;95736.34;;;4.75;68.58
58092;BME280;43896;48.178;11.578;2022-12-07T00:22:56;95730.78;;;4.47;70.23
58092;BME280;43896;48.178;11.578;2022-12-07T00:25:21;95721.41;;;4.45;70.01
58092;BME280;43896;48.178;11.578;2022-12-07T00:27:46;95786.66;;;5.08;68.88
58092;BME280;43896;48.178;11.578;2022-12-07T00:30:12;95796.72;;;5.13;68.55
58092;BME280;43896;48.178;11.578;2022-12-07T00:32:37;95710.47;;;4.30;69.36
58092;BME280;43896;48.178;11.578;2022-12-07T00:35:03;95753.69;;;4.65;68.86
58092;BME280;43896;48.178;11.578;2022-12-07T00:37:28;95762.41;;;4.75;68.76
58092;BME280;43896;48.178;11.578;2022-12-07T00:39:54;95789.41;;;5.06;68.24
58092;BME280;43896;48.178;11.578;2022-12-07T00:42:19;95752.06;;;4.85;68.33
58092;BME280;43896;48.178;11.578;2022-12-07T00:44:44;95735.13;;;4.79;67.93
58092;BME280;43896;48.178;11.578;2022-12-07T00:47:10;95729.19;;;4.56;69.07
58092;BME280;43896;48.178;11.578;2022-12-07T00:49:35;95737.00;;;4.56;69.39
58092;BME280;43896;48.178;11.578;2022-12-07T00:52:01;95782.47;;;4.96;68.49
58092;BME280;43896;48.178;11.578;2022-12-07T00:54:26;95715.84;;;4.49;68.97
58092;BME280;43896;48.178;11.578;2022-12-07T00:56:51;95746.22;;;4.60;68.73
58092;BME280;43896;48.178;11.578;2022-12-07T00:59:17;95745.19;;;4.51;69.02
58092;BME280;43896;48.178;11.578;2022-12-07T01:01:42;95796.75;;;4.69;69.76
58092;BME280;43896;48.178;11.578;2022-12-07T01:04:08;95734.78;;;4.51;68.77
58092;BME280;43896;48.178;11.578;2022-12-07T01:06:33;95722.31;;;4.55;68.61
58092;BME280;43896;48.178;11.578;2022-12-07T01:08:59;95731.94;;;4.43;68.77
58092;BME280;43896;48.178;11.578;2022-12-07T01:11:27;95765.00;;;4.75;69.46
58092;BME280;43896;48.178;11.578;2022-12-07T01:13:54;95707.28;;;4.26;68.75
58092;BME280;43896;48.178;11.578;2022-12-07T01:16:21;95793.09;;;4.72;69.80
58092;BME280;43896;48.178;11.578;2022-12-07T01:18:49;95708.34;;;4.24;69.60
58092;BME280;43896;48.178;11.578;2022-12-07T01:21:26;95792.66;;;4.87;70.02
58092;BME280;43896;48.178;11.578;2022-12-07T01:23:52;95784.56;;;4.69;70.39
58092;BME280;43896;48.178;11.578;2022-12-07T01:26:20;95725.69;;;4.46;69.54
58092;BME280;43896;48.178;11.578;2022-12-07T01:28:47;95722.38;;;4.44;70.09
58092;BME280;43896;48.178;11.578;2022-12-07T01:31:14;95702.84;;;3.94;70.58
58092;BME280;43896;48.178;11.578;2022-12-07T01:33:41;95733.91;;;4.30;70.63
58092;BME280;43896;48.178;11.578;2022-12-07T01:38:39;95767.97;;;4.70;69.85
58092;BME280;43896;48.178;11.578;2022-12-07T01:41:05;95791.91;;;4.97;68.86
58092;BME280;43896;48.178;11.578;2022-12-07T01:43:32;95777.59;;;4.91;69.23
58092;BME280;43896;48.178;11.578;2022-12-07T01:45:58;95730.25;;;4.54;68.85
58092;BME280;43896;48.178;11.578;2022-12-07T01:48:38;95731.72;;;4.46;69.02
58092;BME280;43896;48.178;11.578;2022-12-07T01:51:11;95728.97;;;4.59;68.96
58092;BME280;43896;48.178;11.578;2022-12-07T01:53:41;95764.25;;;4.84;68.98
58092;BME280;43896;48.178;11.578;2022-12-07T01:56:10;95785.94;;;4.85;69.32
58092;BME280;43896;48.178;11.578;2022-12-07T01:58:40;95730.47;;;4.62;69.26
58092;BME280;43896;48.178;11.578;2022-12-07T02:01:06;95780.59;;;4.86;69.29
58092;BME280;43896;48.178;11.578;2022-12-07T02:03:39;95775.81;;;4.92;69.00
58092;BME280;43896;48.178;11.578;2022-12-07T02:06:06;95765.91;;;4.85;69.14
58092;BME280;43896;48.178;11.578;2022-12-07T02:08:32;95791.53;;;5.01;68.75
58092;BME280;43896;48.178;11.578;2022-12-07T02:10:59;95758.09;;;4.85;68.38
58092;BME280;43896;48.178;11.578;2022-12-07T02:13:26;95729.34;;;4.76;68.46
58092;BME280;43896;48.178;11.578;2022-12-07T02:27:10;95772.66;;;4.88;69.93
58092;BME280;43896;48.178;11.578;2022-12-07T02:29:47;95741.44;;;4.77;70.08
58092;BME280;43896;48.178;11.578;2022-12-07T02:32:48;95758.63;;;5.00;69.43
58092;BME280;43896;48.178;11.578;2022-12-07T02:35:22;95715.16;;;4.47;70.70
58092;BME280;43896;48.178;11.578;2022-12-07T02:40:52;95722.38;;;4.44;70.07
58092;BME280;43896;48.178;11.578;2022-12-07T02:43:23;95756.63;;;4.60;70.24
58092;BME280;43896;48.178;11.578;2022-12-07T02:45:51;95749.22;;;4.56;70.60
58092;BME280;43896;48.178;11.578;2022-12-07T02:48:19;95705.84;;;4.22;70.80
58092;BME280;43896;48.178;11.578;2022-12-07T02:50:51;95726.13;;;4.51;70.75
58092;BME280;43896;48.178;11.578;2022-12-07T02:53:34;95661.72;;;4.21;70.05
58092;BME280;43896;48.178;11.578;2022-12-07T02:56:26;95674.50;;;4.24;70.30
58092;BME280;43896;48.178;11.578;2022-12-07T03:02:35;95728.28;;;4.46;70.51
58092;BME280;43896;48.178;11.578;2022-12-07T03:04:53;95762.03;;;4.80;70.21
58092;BME280;43896;48.178;11.578;2022-12-07T03:10:11;95759.38;;;4.59;70.49
58092;BME280;43896;48.178;11.578;2022-12-07T03:12:47;95747.84;;;4.40;70.30
58092;BME280;43896;48.178;11.578;2022-12-07T03:15:24;95678.22;;;4.10;69.61
58092;BME280;43896;48.178;11.578;2022-12-07T03:17:51;95761.94;;;4.70;69.81
58092;BME280;43896;48.178;11.578;2022-12-07T03:20:20;95761.94;;;4.70;69.48
58092;BME280;43896;48.178;11.578;2022-12-07T03:22:47;95726.59;;;4.56;69.50
58092;BME280;43896;48.178;11.578;2022-12-07T03:25:15;95766.28;;;4.81;68.98
58092;BME280;43896;48.178;11.578;2022-12-07T03:30:19;95714.56;;;4.44;68.98
58092;BME280;43896;48.178;11.578;2022-12-07T03:32:57;95765.13;;;4.74;69.54
58092;BME280;43896;48.178;11.578;2022-12-07T03:35:47;95700.00;;;4.41;69.23
58092;BME280;43896;48.178;11.578;2022-12-07T03:38:29;95753.38;;;4.79;69.15
58092;BME280;43896;48.178;11.578;2022-12-07T03:41:12;95713.34;;;4.48;69.02
58092;BME280;43896;48.178;11.578;2022-12-07T03:43:40;95762.66;;;4.72;69.85
58092;BME280;43896;48.178;11.578;2022-12-07T03:57:08;95686.31;;;4.28;69.78
58092;BME280;43896;48.178;11.578;2022-12-07T03:59:34;95699.84;;;4.54;68.99
58092;BME280;43896;48.178;11.578;2022-12-07T04:02:03;95751.34;;;4.83;69.59
58092;BME280;43896;48.178;11.578;2022-12-07T04:04:30;95667.47;;;4.36;69.23
58092;BME280;43896;48.178;11.578;2022-12-07T04:06:55;95646.63;;;4.15;68.92
58092;BME280;43896;48.178;11.578;2022-12-07T04:09:21;95728.50;;;4.54;69.74
58092;BME280;43896;48.178;11.578;2022-12-07T04:11:47;95743.63;;;4.60;69.43
58092;BME280;43896;48.178;11.578;2022-12-07T04:14:12;95671.91;;;4.24;69.50
58092;BME280;43896;48.178;11.578;2022-12-07T04:16:52;95685.72;;;4.36;68.97
58092;BME280;43896;48.178;11.578;2022-12-07T04:19:20;95639.91;;;4.01;70.25
58092;BME280;43896;48.178;11.578;2022-12-07T04:21:46;95657.28;;;4.11;70.41
58092;BME280;43896;48.178;11.578;2022-12-07T04:24:13;95687.50;;;4.35;69.92
58092;BME280;43896;48.178;11.578;2022-12-07T04:26:39;95703.34;;;4.32;70.81
58092;BME280;43896;48.178;11.578;2022-12-07T04:29:05;95706.47;;;4.15;71.32
58092;BME280;43896;48.178;11.578;2022-12-07T04:31:30;95680.59;;;4.02;71.28
58092;BME280;43896;48.178;11.578;2022-12-07T04:33:56;95762.94;;;4.58;71.01
58092;BME280;43896;48.178;11.578;2022-12-07T04:36:21;95745.53;;;4.47;71.57
58092;BME280;43896;48.178;11.578;2022-12-07T04:38:47;95682.25;;;4.03;72.39
58092;BME280;43896;48.178;11.578;2022-12-07T04:41:12;95640.97;;;3.98;71.40
58092;BME280;43896;48.178;11.578;2022-12-07T04:43:37;95704.28;;;4.31;71.91
58092;BME280;43896;48.178;11.578;2022-12-07T04:46:03;95672.03;;;4.22;71.37
58092;BME280;43896;48.178;11.578;2022-12-07T04:48:28;95700.78;;;4.53;71.08
58092;BME280;43896;48.178;11.578;2022-12-07T04:50:54;95700.56;;;4.45;71.58
58092;BME280;43896;48.178;11.578;2022-12-07T04:53:20;95690.75;;;4.48;72.11
58092;BME280;43896;48.178;11.578;2022-12-07T04:55:46;95696.59;;;4.29;73.49
58092;BME280;43896;48.178;11.578;2022-12-07T04:58:12;95749.84;;;4.69;72.43
58092;BME280;43896;48.178;11.578;2022-12-07T05:00:39;95704.72;;;4.04;74.04
58092;BME280;43896;48.178;11.578;2022-12-07T05:03:04;95693.41;;;3.82;74.94
58092;BME280;43896;48.178;11.578;2022-12-07T05:05:30;95711.41;;;4.29;73.54
58092;BME280;43896;48.178;11.578;2022-12-07T05:07:55;95751.53;;;4.70;72.39
58092;BME280;43896;48.178;11.578;2022-12-07T05:10:21;95641.06;;;4.08;72.14
58092;BME280;43896;48.178;11.578;2022-12-07T05:12:46;95698.66;;;4.47;71.67
58092;BME280;43896;48.178;11.578;2022-12-07T05:15:13;95703.19;;;4.45;72.05
58092;BME280;43896;48.178;11.578;2022-12-07T05:17:38;95674.03;;;4.30;72.41
58092;BME280;43896;48.178;11.578;2022-12-07T05:20:04;95742.84;;;4.81;71.41
58092;BME280;43896;48.178;11.578;2022-12-07T05:22:30;95712.09;;;4.42;72.48
58092;BME280;43896;48.178;11.578;2022-12-07T05:24:56;95649.00;;;4.06;72.22
58092;BME280;43896;48.178;11.578;2022-12-07T05:27:21;95671.44;;;4.19;71.97
58092;BME280;43896;48.178;11.578;2022-12-07T05:29:46;95676.09;;;4.04;73.18
58092;BME280;43896;48.178;11.578;2022-12-07T05:32:12;95749.47;;;4.53;73.32
58092;BME280;43896;48.178;11.578;2022-12-07T05:34:37;95749.47;;;4.53;71.91
58092;BME280;43896;48.178;11.578;2022-12-07T05:37:02;95678.31;;;4.08;72.16
58092;BME280;43896;48.178;11.578;2022-12-07T05:39:28;95688.00;;;4.18;71.95
58092;BME280;43896;48.178;11.578;2022-12-07T05:41:53;95753.78;;;4.20;72.73
58092;BME280;43896;48.178;11.578;2022-12-07T05:44:37;95660.88;;;3.88;71.84
58092;BME280;43896;48.178;11.578;2022-12-07T05:47:03;95721.06;;;4.38;71.50
58092;BME280;43896;48.178;11.578;2022-12-07T05:49:29;95753.00;;;4.51;71.08
58092;BME280;43896;48.178;11.578;2022-12-07T05:51:54;95737.47;;;4.61;71.31
58092;BME280;43896;48.178;11.578;2022-12-07T05:54:19;95751.28;;;4.73;70.23
58092;BME280;43896;48.178;11.578;2022-12-07T05:56:45;95738.75;;;4.67;70.49
58092;BME280;43896;48.178;11.578;2022-12-07T05:59:10;95686.28;;;4.39;69.61
58092;BME280;43896;48.178;11.578;2022-12-07T06:01:59;95730.53;;;4.50;69.90
58092;BME280;43896;48.178;11.578;2022-12-07T06:04:27;95742.09;;;4.58;70.70
58092;BME280;43896;48.178;11.578;2022-12-07T06:06:53;95740.41;;;4.68;70.18
58092;BME280;43896;48.178;11.578;2022-12-07T06:09:21;95753.38;;;4.79;69.71
58092;BME280;43896;48.178;11.578;2022-12-07T06:11:46;95738.94;;;4.75;69.28
58092;BME280;43896;48.178;11.578;2022-12-07T06:14:30;95741.88;;;4.82;69.05
58092;BME280;43896;48.178;11.578;2022-12-07T06:16:56;95727.72;;;4.75;69.90
58092;BME280;43896;48.178;11.578;2022-12-07T06:19:21;95753.34;;;4.91;69.19
58092;BME280;43896;48.178;11.578;2022-12-07T06:21:47;95731.50;;;4.70;69.45
58092;BME280;43896;48.178;11.578;2022-12-07T06:24:13;95744.31;;;4.95;68.16
58092;BME280;43896;48.178;11.578;2022-12-07T06:26:39;95759.69;;;4.98;68.57
58092;BME280;43896;48.178;11.578;2022-12-07T06:29:04;95751.09;;;4.86;68.22
58092;BME280;43896;48.178;11.578;2022-12-07T06:31:30;95738.19;;;4.84;68.31
58092;BME280;43896;48.178;11.578;2022-12-07T06:34:00;95756.88;;;4.89;68.42
58092;BME280;43896;48.178;11.578;2022-12-07T06:36:26;95745.66;;;4.89;68.33
58092;BME280;43896;48.178;11.578;2022-12-07T06:38:51;95756.63;;;4.93;68.54
58092;BME280;43896;48.178;11.578;2022-12-07T06:41:17;95759.50;;;4.89;68.50
58092;BME280;43896;48.178;11.578;2022-12-07T06:43:42;95753.94;;;4.83;69.37
58092;BME280;43896;48.178;11.578;2022-12-07T06:46:08;95761.75;;;4.83;68.47
58092;BME280;43896;48.178;11.578;2022-12-07T06:48:33;95758.00;;;4.76;68.87
58092;BME280;43896;48.178;11.578;2022-12-07T06:50:58;95745.09;;;4.74;68.88
58092;BME280;43896;48.178;11.578;2022-12-07T06:53:24;95733.19;;;4.60;69.24
58092;BME280;43896;48.178;11.578;2022-12-07T06:55:49;95721.75;;;4.51;68.84
58092;BME280;43896;48.178;11.578;2022-12-07T06:58:14;95742.78;;;4.60;69.54
58092;BME280;43896;48.178;11.578;2022-12-07T07:00:40;95761.81;;;4.72;69.06
58092;BME280;43896;48.178;11.578;2022-12-07T07:03:05;95698.63;;;4.26;69.24
58092;BME280;43896;48.178;11.578;2022-12-07T07:05:31;95767.72;;;4.74;69.85
58092;BME280;43896;48.178;11.578;2022-12-07T07:07:56;95749.03;;;4.68;68.67
58092;BME280;43896;48.178;11.578;2022-12-07T07:10:21;95765.81;;;4.76;69.14
58092;BME280;43896;48.178;11.578;2022-12-07T07:12:47;95749.41;;;4.64;68.75
58092;BME280;43896;48.178;11.578;2022-12-07T07:15:12;95717.78;;;4.36;68.79
58092;BME280;43896;48.178;11.578;2022-12-07T07:17:37;95751.88;;;4.65;68.68
58092;BME280;43896;48.178;11.578;2022-12-07T07:20:03;95750.41;;;4.51;69.25
58092;BME280;43896;48.178;11.578;2022-12-07T07:22:29;95740.50;;;4.45;69.49
58092;BME280;43896;48.178;11.578;2022-12-07T07:24:54;95767.19;;;4.59;69.60
58092;BME280;43896;48.178;11.578;2022-12-07T07:27:19;95765.41;;;4.59;69.50
58092;BME280;43896;48.178;11.578;2022-12-07T07:29:45;95751.06;;;4.65;69.32
58092;BME280;43896;48.178;11.578;2022-12-07T07:32:10;95770.56;;;4.70;68.30
58092;BME280;43896;48.178;11.578;2022-12-07T07:34:35;95778.63;;;4.67;68.72
58092;BME280;43896;48.178;11.578;2022-12-07T07:37:01;95781.00;;;4.70;68.62
58092;BME280;43896;48.178;11.578;2022-12-07T07:39:26;95784.63;;;4.79;68.66
58092;BME280;43896;48.178;11.578;2022-12-07T07:41:51;95786.53;;;4.88;67.68
58092;BME280;43896;48.178;11.578;2022-12-07T07:44:17;95785.94;;;4.85;67.53
58092;BME280;43896;48.178;11.578;2022-12-07T07:46:42;95758.97;;;4.75;67.31
58092;BME280;43896;48.178;11.578;2022-12-07T07:49:09;95778.97;;;4.74;67.56
58092;BME280;43896;48.178;11.578;2022-12-07T07:51:35;95790.13;;;4.76;67.99
58092;BME280;43896;48.178;11.578;2022-12-07T07:54:00;95791.06;;;4.75;67.28
58092;BME280;43896;48.178;11.578;2022-12-07T07:56:26;95786.88;;;4.84;67.47
58092;BME280;43896;48.178;11.578;2022-12-07T07:58:52;95792.91;;;4.84;67.41
58092;BME280;43896;48.178;11.578;2022-12-07T08:01:17;95776.34;;;4.85;67.15
58092;BME280;43896;48.178;11.578;2022-12-07T08:03:44;95781.50;;;4.97;66.63
58092;BME280;43896;48.178;11.578;2022-12-07T08:06:10;95788.84;;;4.92;66.45
58092;BME280;43896;48.178;11.578;2022-12-07T08:08:35;95789.47;;;4.95;66.35
58092;BME280;43896;48.178;11.578;2022-12-07T08:11:04;95768.47;;;4.64;67.06
58092;BME280;43896;48.178;11.578;2022-12-07T08:13:30;95772.25;;;4.72;67.61
58092;BME280;43896;48.178;11.578;2022-12-07T08:15:55;95789.81;;;4.91;67.24
58092;BME280;43896;48.178;11.578;2022-12-07T08:18:20;95792.22;;;4.82;67.10
58092;BME280;43896;48.178;11.578;2022-12-07T08:20:46;95793.59;;;4.86;66.43
58092;BME280;43896;48.178;11.578;2022-12-07T08:23:11;95795.38;;;4.97;66.43
58092;BME280;43896;48.178;11.578;2022-12-07T08:25:37;95799.50;;;5.00;66.38
58092;BME280;43896;48.178;11.578;2022-12-07T08:28:03;95796.31;;;4.96;67.03
58092;BME280;43896;48.178;11.578;2022-12-07T08:30:29;95793.69;;;4.96;66.62
58092;BME280;43896;48.178;11.578;2022-12-07T08:32:55;95797.28;;;4.95;66.86
58092;BME280;43896;48.178;11.578;2022-12-07T08:35:20;95773.06;;;4.72;66.90
58092;BME280;43896;48.178;11.578;2022-12-07T08:37:46;95805.28;;;5.03;66.70
58092;BME280;43896;48.178;11.578;2022-12-07T08:40:12;95795.25;;;4.99;66.50
58092;BME280;43896;48.178;11.578;2022-12-07T08:42:50;95794.13;;;5.13;65.90
58092;BME280;43896;48.178;11.578;2022-12-07T08:45:17;95766.59;;;4.99;65.94
58092;BME280;43896;48.178;11.578;2022-12-07T08:48:07;95782.34;;;5.18;65.82
58092;BME280;43896;48.178;11.578;2022-12-07T08:50:36;95799.84;;;5.28;65.99
58092;BME280;43896;48.178;11.578;2022-12-07T08:53:03;95795.25;;;5.20;65.83
58092;BME280;43896;48.178;11.578;2022-12-07T08:55:31;95784.72;;;5.21;65.51
58092;BME280;43896;48.178;11.578;2022-12-07T08:58:00;95779.38;;;5.23;65.40
58092;BME280;43896;48.178;11.578;2022-12-07T09:00:26;95762.06;;;5.22;65.08
58092;BME280;43896;48.178;11.578;2022-12-07T09:02:53;95778.41;;;5.24;65.60
58092;BME280;43896;48.178;11.578;2022-12-07T09:05:18;95801.13;;;5.33;65.35
58092;BME280;43896;48.178;11.578;2022-12-07T09:07:46;95782.56;;;5.26;64.29
58092;BME280;43896;48.178;11.578;2022-12-07T09:10:14;95783.44;;;5.16;64.93
58092;BME280;43896;48.178;11.578;2022-12-07T09:12:40;95795.78;;;5.35;65.19
58092;BME280;43896;48.178;11.578;2022-12-07T09:15:05;95803.88;;;5.32;64.27
58092;BME280;43896;48.178;11.578;2022-12-07T09:17:34;95796.69;;;5.45;63.90
58092;BME280;43896;48.178;11.578;2022-12-07T09:20:01;95789.84;;;5.33;64.30
58092;BME280;43896;48.178;11.578;2022-12-07T09:22:30;95797.06;;;5.40;63.42
58092;BME280;43896;48.178;11.578;2022-12-07T09:24:57;95778.22;;;5.37;62.82
58092;BME280;43896;48.178;11.578;2022-12-07T09:27:23;95767.56;;;5.40;62.42
58092;BME280;43896;48.178;11.578;2022-12-07T09:29:49;95774.53;;;5.39;62.64
58092;BME280;43896;48.178;11.578;2022-12-07T09:32:14;95762.91;;;5.43;62.50
58092;BME280;43896;48.178;11.578;2022-12-07T09:34:40;95793.16;;;5.77;62.40
58092;BME280;43896;48.178;11.578;2022-12-07T09:37:05;95802.06;;;5.53;62.22
58092;BME280;43896;48.178;11.578;2022-12-07T09:39:31;95791.94;;;5.60;62.67
58092;BME280;43896;48.178;11.578;2022-12-07T09:41:57;95721.13;;;5.34;62.02
58092;BME280;43896;48.178;11.578;2022-12-07T09:44:25;95701.25;;;5.42;61.00
58092;BME280;43896;48.178;11.578;2022-12-07T09:46:51;95779.19;;;5.88;61.15
58092;BME280;43896;48.178;11.578;2022-12-07T09:49:20;95767.06;;;5.77;60.73
58092;BME280;43896;48.178;11.578;2022-12-07T09:51:46;95713.34;;;5.43;60.46
58092;BME280;43896;48.178;11.578;2022-12-07T09:54:16;95719.03;;;5.89;59.61
58092;BME280;43896;48.178;11.578;2022-12-07T09:56:42;95783.09;;;6.34;59.62
58092;BME280;43896;48.178;11.578;2022-12-07T09:59:18;95769.50;;;6.40;59.67
58092;BME280;43896;48.178;11.578;2022-12-07T10:01:48;95733.94;;;5.98;59.62
58092;BME280;43896;48.178;11.578;2022-12-07T10:04:25;95723.97;;;6.23;58.41
58092;BME280;43896;48.178;11.578;2022-12-07T10:06:51;95770.03;;;6.24;59.75
58092;BME280;43896;48.178;11.578;2022-12-07T10:09:18;95725.72;;;5.82;60.58
58092;BME280;43896;48.178;11.578;2022-12-07T10:14:33;95731.34;;;5.98;59.09
58092;BME280;43896;48.178;11.578;2022-12-07T10:17:00;95714.22;;;5.85;59.40
58092;BME280;43896;48.178;11.578;2022-12-07T10:19:29;95774.53;;;6.12;59.19
58092;BME280;43896;48.178;11.578;2022-12-07T10:24:35;95735.78;;;5.87;59.00
58092;BME280;43896;48.178;11.578;2022-12-07T10:27:05;95692.88;;;5.70;59.64
58092;BME280;43896;48.178;11.578;2022-12-07T10:29:33;95721.72;;;5.99;59.24
58092;BME280;43896;48.178;11.578;2022-12-07T10:32:35;95702.09;;;6.14;59.37
58092;BME280;43896;48.178;11.578;2022-12-07T10:37:47;95708.00;;;6.16;57.86
58092;BME280;43896;48.178;11.578;2022-12-07T10:40:35;95761.28;;;6.54;57.81
58092;BME280;43896;48.178;11.578;2022-12-07T10:43:20;95711.19;;;6.30;57.72
58092;BME280;43896;48.178;11.578;2022-12-07T10:51:18;95699.13;;;6.58;55.35
58092;BME280;43896;48.178;11.578;2022-12-07T10:53:57;95732.97;;;6.89;54.69
58092;BME280;43896;48.178;11.578;2022-12-07T11:04:33;95725.66;;;7.79;50.35
58092;BME280;43896;48.178;11.578;2022-12-07T11:07:11;95714.34;;;14.24;37.73
58092;BME280;43896;48.178;11.578;2022-12-07T11:15:18;95694.88;;;12.73;37.60
58092;BME280;43896;48.178;11.578;2022-12-07T11:21:09;95712.59;;;10.45;41.95
58092;BME280;43896;48.178;11.578;2022-12-07T11:24:18;95710.03;;;9.58;43.34
58092;BME280;43896;48.178;11.578;2022-12-07T11:29:44;95714.47;;;9.92;42.01
58092;BME280;43896;48.178;11.578;2022-12-07T11:32:14;95694.53;;;11.49;38.50
58092;BME280;43896;48.178;11.578;2022-12-07T11:37:31;95693.38;;;10.78;41.29
58092;BME280;43896;48.178;11.578;2022-12-07T11:40:29;95704.91;;;9.05;44.90
58092;BME280;43896;48.178;11.578;2022-12-07T11:42:58;95691.94;;;8.21;47.65
58092;BME280;43896;48.178;11.578;2022-12-07T11:45:27;95633.66;;;7.74;48.78
58092;BME280;43896;48.178;11.578;2022-12-07T11:47:58;95679.72;;;7.57;49.61
58092;BME280;43896;48.178;11.578;2022-12-07T11:50:36;95687.53;;;7.94;48.78
58092;BME280;43896;48.178;11.578;2022-12-07T12:03:50;95654.22;;;7.21;49.59
58092;BME280;43896;48.178;11.578;2022-12-07T12:06:17;95617.41;;;6.75;50.86
58092;BME280;43896;48.178;11.578;2022-12-07T12:08:55;95673.53;;;6.91;51.35
58092;BME280;43896;48.178;11.578;2022-12-07T12:19:43;95660.06;;;6.66;50.93
58092;BME280;43896;48.178;11.578;2022-12-07T12:22:22;95653.34;;;6.64;51.35
58092;BME280;43896;48.178;11.578;2022-12-07T12:24:53;95651.28;;;6.28;52.98
58092;BME280;43896;48.178;11.578;2022-12-07T12:27:27;95653.75;;;6.40;52.77
58092;BME280;43896;48.178;11.578;2022-12-07T12:30:00;95651.16;;;6.59;52.70
58092;BME280;43896;48.178;11.578;2022-12-07T12:32:39;95662.69;;;6.37;53.27
58092;BME280;43896;48.178;11.578;2022-12-07T12:35:34;95653.06;;;6.47;52.50
58092;BME280;43896;48.178;11.578;2022-12-07T12:40:49;95654.81;;;6.95;51.82
58092;BME280;43896;48.178;11.578;2022-12-07T12:43:47;95647.88;;;7.24;50.48
58092;BME280;43896;48.178;11.578;2022-12-07T12:49:14;95641.91;;;7.41;50.55
58092;BME280;43896;48.178;11.578;2022-12-07T12:51:57;95645.28;;;7.24;50.66
58092;BME280;43896;48.178;11.578;2022-12-07T12:54:26;95647.81;;;7.43;50.06
58092;BME280;43896;48.178;11.578;2022-12-07T12:59:41;95633.97;;;7.61;49.96
58092;BME280;43896;48.178;11.578;2022-12-07T13:04:52;95638.56;;;7.77;49.00
58092;BME280;43896;48.178;11.578;2022-12-07T13:13:04;95631.78;;;8.12;48.90
58092;BME280;43896;48.178;11.578;2022-12-07T13:15:41;95630.50;;;7.98;48.27
58092;BME280;43896;48.178;11.578;2022-12-07T13:18:34;95630.88;;;8.21;48.50
58092;BME280;43896;48.178;11.578;2022-12-07T13:21:00;95634.63;;;8.36;48.23
58092;BME280;43896;48.178;11.578;2022-12-07T13:23:31;95613.66;;;8.36;47.34
58092;BME280;43896;48.178;11.578;2022-12-07T13:26:06;95624.41;;;8.43;47.16
58092;BME280;43896;48.178;11.578;2022-12-07T13:28:39;95556.19;;;8.17;47.51
58092;BME280;43896;48.178;11.578;2022-12-07T13:31:37;95624.50;;;8.51;46.77
58092;BME280;43896;48.178;11.578;2022-12-07T13:34:05;95608.81;;;8.41;47.23
58092;BME280;43896;48.178;11.578;2022-12-07T13:36:33;95607.00;;;8.42;47.96
58092;BME280;43896;48.178;11.578;2022-12-07T13:39:21;95579.16;;;8.05;48.21
58092;BME280;43896;48.178;11.578;2022-12-07T13:41:58;95619.81;;;8.27;47.60
58092;BME280;43896;48.178;11.578;2022-12-07T13:44:26;95604.97;;;8.18;46.80
58092;BME280;43896;48.178;11.578;2022-12-07T13:49:24;95610.91;;;8.38;46.03
58092;BME280;43896;48.178;11.578;2022-12-07T13:51:51;95626.22;;;7.69;49.38
58092;BME280;43896;48.178;11.578;2022-12-07T13:54:18;95559.50;;;7.27;49.40
58092;BME280;43896;48.178;11.578;2022-12-07T13:56:44;95596.84;;;7.75;49.34
58092;BME280;43896;48.178;11.578;2022-12-07T13:59:17;95619.00;;;7.81;48.49
58092;BME280;43896;48.178;11.578;2022-12-07T14:01:45;95599.44;;;7.75;48.82
58092;BME280;43896;48.178;11.578;2022-12-07T14:06:52;95612.31;;;7.68;48.83
58092;BME280;43896;48.178;11.578;2022-12-07T14:09:25;95599.38;;;7.39;49.75
58092;BME280;43896;48.178;11.578;2022-12-07T14:11:56;95570.53;;;7.11;49.83
58092;BME280;43896;48.178;11.578;2022-12-07T14:14:26;95594.06;;;7.21;50.29
58092;BME280;43896;48.178;11.578;2022-12-07T14:16:57;95589.25;;;7.17;51.01
58092;BME280;43896;48.178;11.578;2022-12-07T14:19:45;95611.16;;;7.16;51.35
58092;BME280;43896;48.178;11.578;2022-12-07T14:24:48;95607.22;;;6.92;51.77
58092;BME280;43896;48.178;11.578;2022-12-07T14:27:18;95612.31;;;7.03;51.51
58092;BME280;43896;48.178;11.578;2022-12-07T14:29:45;95612.25;;;7.13;51.07
58092;BME280;43896;48.178;11.578;2022-12-07T14:32:31;95584.94;;;6.88;51.39
58092;BME280;43896;48.178;11.578;2022-12-07T14:35:01;95588.09;;;6.91;51.28
58092;BME280;43896;48.178;11.578;2022-12-07T14:37:28;95609.69;;;6.93;52.01
58092;BME280;43896;48.178;11.578;2022-12-07T14:39:53;95561.63;;;6.47;52.75
58092;BME280;43896;48.178;11.578;2022-12-07T14:42:19;95575.94;;;6.33;53.57
58092;BME280;43896;48.178;11.578;2022-12-07T14:44:45;95609.59;;;6.56;54.56
58092;BME280;43896;48.178;11.578;2022-12-07T14:47:11;95567.16;;;6.34;53.67
58092;BME280;43896;48.178;11.578;2022-12-07T14:49:36;95602.75;;;6.55;54.57
58092;BME280;43896;48.178;11.578;2022-12-07T14:52:02;95593.94;;;6.56;53.27
58092;BME280;43896;48.178;11.578;2022-12-07T14:54:31;95571.66;;;6.32;53.54
58092;BME280;43896;48.178;11.578;2022-12-07T14:56:57;95596.00;;;6.52;52.90
58092;BME280;43896;48.178;11.578;2022-12-07T14:59:23;95592.13;;;6.56;52.09
58092;BME280;43896;48.178;11.578;2022-12-07T15:01:48;95570.00;;;6.41;52.55
58092;BME280;43896;48.178;11.578;2022-12-07T15:04:14;95584.34;;;6.47;52.72
58092;BME280;43896;48.178;11.578;2022-12-07T15:06:39;95604.78;;;6.51;53.44